Time;durP1;ratioP1;P1;durP2;ratioP2;P2;SDS_P1;SDS_P2;PMS_P1;PMS_P2;Temp;Humidity;BMP_temperature;BMP_pressure;BME280_temperature;BME280_humidity;BME280_pressure;Samples;Min_cycle;Max_cycle;Signal;HPM_P1;HPM_P2
2021/06/06 00:00:02;;;;;;;45.22;40.40;;;19.40;99.90;;;;;;4968274;28;20206;-79
2021/06/06 00:02:29;;;;;;;51.95;42.55;;;19.30;99.90;;;;;;4970941;28;20229;-79
2021/06/06 00:04:58;;;;;;;48.78;43.67;;;19.20;99.90;;;;;;4988054;28;20256;-80
2021/06/06 00:07:26;;;;;;;48.78;43.45;;;19.20;99.90;;;;;;4967448;28;20206;-79
2021/06/06 00:09:53;;;;;;;45.40;40.58;;;19.20;99.90;;;;;;4968471;28;20285;-79
2021/06/06 00:12:20;;;;;;;55.30;47.50;;;19.00;99.90;;;;;;4968359;28;20310;-77
2021/06/06 00:14:47;;;;;;;54.40;44.67;;;19.00;99.90;;;;;;4969395;28;20218;-79
2021/06/06 00:17:14;;;;;;;54.92;46.67;;;19.00;99.90;;;;;;4965787;29;20218;-79
2021/06/06 00:19:41;;;;;;;48.42;42.95;;;19.00;99.90;;;;;;4952599;29;20198;-80
2021/06/06 00:22:09;;;;;;;49.90;44.17;;;18.90;99.90;;;;;;4955509;29;20195;-80
2021/06/06 00:24:37;;;;;;;56.78;47.97;;;18.90;99.90;;;;;;4955955;29;20294;-78
2021/06/06 00:27:07;;;;;;;59.75;47.25;;;19.00;99.90;;;;;;4957902;29;20265;-80
2021/06/06 00:29:34;;;;;;;59.28;49.08;;;19.00;99.90;;;;;;4972480;29;20234;-80
2021/06/06 00:32:03;;;;;;;56.75;44.97;;;19.00;99.90;;;;;;4954779;28;20206;-81
2021/06/06 00:34:30;;;;;;;62.38;49.70;;;18.90;99.90;;;;;;4971257;29;20317;-80
2021/06/06 00:36:59;;;;;;;53.58;45.60;;;19.00;99.90;;;;;;4953259;29;20210;-80
2021/06/06 00:39:28;;;;;;;55.90;46.20;;;19.00;99.90;;;;;;4938417;28;20225;-80
2021/06/06 00:41:59;;;;;;;58.17;47.70;;;19.00;99.90;;;;;;4949254;29;20199;-79
2021/06/06 00:44:30;;;;;;;56.60;48.55;;;19.00;99.90;;;;;;4935713;29;20230;-80
2021/06/06 00:46:58;;;;;;;65.32;51.22;;;19.00;99.90;;;;;;4946010;29;20214;-80
2021/06/06 00:49:25;;;;;;;63.15;51.25;;;18.90;99.90;;;;;;4983020;28;20218;-80
2021/06/06 00:51:56;;;;;;;66.15;51.42;;;19.00;99.90;;;;;;4965863;28;20225;-80
2021/06/06 00:54:29;;;;;;;60.17;51.58;;;19.00;99.90;;;;;;4968880;28;20206;-80
2021/06/06 00:57:01;;;;;;;69.47;54.13;;;18.70;99.90;;;;;;4966554;28;20261;-79
2021/06/06 00:59:34;;;;;;;77.18;56.53;;;18.80;99.90;;;;;;4968649;28;20205;-80
2021/06/06 01:02:01;;;;;;;66.00;52.83;;;18.80;99.90;;;;;;4986437;28;20202;-80
2021/06/06 01:04:28;;;;;;;60.28;51.42;;;18.70;99.90;;;;;;4960888;29;20226;-80
2021/06/06 01:07:02;;;;;;;70.03;55.28;;;18.80;99.90;;;;;;4959814;23;20262;-81
2021/06/06 01:09:29;;;;;;;71.40;53.92;;;18.90;99.90;;;;;;4939485;29;20262;-82
2021/06/06 01:12:05;;;;;;;59.17;50.38;;;18.80;99.90;;;;;;4906360;29;20203;-82
2021/06/06 01:14:44;;;;;;;69.80;52.03;;;18.90;99.90;;;;;;4922148;29;20184;-82
2021/06/06 01:17:19;;;;;;;58.78;50.20;;;18.90;99.90;;;;;;4938498;29;20246;-82
2021/06/06 01:19:52;;;;;;;66.70;53.08;;;18.90;99.90;;;;;;4921502;29;20290;-82
2021/06/06 01:22:34;;;;;;;70.78;52.85;;;18.90;99.90;;;;;;4942769;29;20214;-82
2021/06/06 01:25:09;;;;;;;76.03;56.72;;;18.80;99.90;;;;;;4980215;28;20275;-82
2021/06/06 01:27:42;;;;;;;64.72;50.47;;;18.70;99.90;;;;;;4958291;29;20233;-82
2021/06/06 01:30:18;;;;;;;78.25;57.08;;;18.70;99.90;;;;;;4939304;28;20198;-82
2021/06/06 01:32:50;;;;;;;75.00;51.85;;;18.60;99.90;;;;;;4940397;29;20203;-82
2021/06/06 01:35:22;;;;;;;71.05;54.00;;;18.50;99.90;;;;;;4925103;28;20221;-82
2021/06/06 01:37:59;;;;;;;71.75;54.97;;;18.50;99.90;;;;;;4940835;29;20222;-82
2021/06/06 01:40:33;;;;;;;70.97;54.85;;;18.40;99.90;;;;;;4940615;28;20194;-82
2021/06/06 01:43:04;;;;;;;78.70;58.67;;;18.50;99.90;;;;;;4940985;29;20203;-82
2021/06/06 01:45:37;;;;;;;80.78;58.92;;;18.50;99.90;;;;;;4940509;29;20290;-82
2021/06/06 01:48:08;;;;;;;78.55;59.53;;;18.50;99.90;;;;;;4932841;29;20249;-82
2021/06/06 01:50:43;;;;;;;73.53;55.75;;;18.50;99.90;;;;;;4922341;28;20194;-82
2021/06/06 01:53:14;;;;;;;65.82;51.03;;;18.60;99.90;;;;;;4923776;29;20203;-82
2021/06/06 01:55:46;;;;;;;73.03;54.08;;;18.50;99.90;;;;;;4922876;29;20227;-82
2021/06/06 01:58:15;;;;;;;65.82;51.30;;;18.60;99.90;;;;;;4924579;29;20209;-82
2021/06/06 02:00:53;;;;;;;68.63;50.45;;;18.60;99.90;;;;;;4908442;29;20198;-82
2021/06/06 02:03:28;;;;;;;67.78;51.90;;;18.50;99.90;;;;;;4941082;29;20211;-82
2021/06/06 02:05:58;;;;;;;73.22;53.50;;;18.50;99.90;;;;;;4923590;29;20227;-82
2021/06/06 02:08:33;;;;;;;58.80;48.03;;;18.40;99.90;;;;;;4907774;29;20231;-82
2021/06/06 02:11:09;;;;;;;69.25;52.13;;;18.40;99.90;;;;;;4923779;29;20229;-82
2021/06/06 02:13:43;;;;;;;89.43;59.15;;;18.50;99.90;;;;;;4906842;29;20252;-82
2021/06/06 02:16:15;;;;;;;76.88;53.83;;;18.60;99.90;;;;;;4920169;29;20232;-81
2021/06/06 02:18:43;;;;;;;83.55;60.00;;;18.50;99.90;;;;;;4904701;29;20232;-82
2021/06/06 02:21:16;;;;;;;88.63;60.35;;;18.50;99.90;;;;;;4936585;29;20200;-82
2021/06/06 02:23:46;;;;;;;93.35;66.03;;;18.30;99.90;;;;;;4938258;29;20214;-81
2021/06/06 02:26:18;;;;;;;81.93;58.50;;;18.30;99.90;;;;;;4924731;29;20226;-81
2021/06/06 02:28:55;;;;;;;88.55;62.67;;;18.20;99.90;;;;;;4940348;29;20613;-81
2021/06/06 02:31:32;;;;;;;82.80;63.35;;;18.30;99.90;;;;;;4923103;29;20693;-81
2021/06/06 02:34:06;;;;;;;75.47;55.67;;;18.20;99.90;;;;;;4913281;29;20262;-82
2021/06/06 02:36:36;;;;;;;86.72;61.65;;;18.20;99.90;;;;;;4928230;29;20405;-81
2021/06/06 02:39:11;;;;;;;73.55;52.92;;;18.40;99.90;;;;;;4911992;29;20223;-81
2021/06/06 02:41:49;;;;;;;76.53;56.92;;;18.40;99.90;;;;;;4911875;29;20232;-81
2021/06/06 02:44:22;;;;;;;72.03;54.80;;;18.30;99.90;;;;;;4927332;29;20262;-81
2021/06/06 02:46:59;;;;;;;71.38;55.60;;;18.40;99.90;;;;;;4925789;29;20311;-81
2021/06/06 02:49:38;;;;;;;67.75;53.90;;;18.30;99.90;;;;;;4924567;29;20760;-81
2021/06/06 02:52:11;;;;;;;69.13;51.55;;;18.30;99.90;;;;;;4924838;29;20203;-81
2021/06/06 02:54:50;;;;;;;72.93;55.60;;;18.30;99.90;;;;;;4942125;29;20203;-81
2021/06/06 02:57:29;;;;;;;81.38;57.47;;;18.40;99.90;;;;;;4941714;29;20195;-82
2021/06/06 03:00:05;;;;;;;79.30;58.03;;;18.50;99.90;;;;;;4941417;29;20234;-81
2021/06/06 03:02:43;;;;;;;81.47;60.38;;;18.30;99.90;;;;;;4941281;29;20199;-81
2021/06/06 03:05:17;;;;;;;70.28;56.17;;;18.10;99.90;;;;;;4944928;29;20190;-81
2021/06/06 03:07:49;;;;;;;73.40;58.03;;;18.00;99.90;;;;;;4928870;29;20225;-81
2021/06/06 03:10:19;;;;;;;72.65;58.22;;;18.20;99.90;;;;;;4943697;29;20203;-81
2021/06/06 03:12:51;;;;;;;67.38;54.50;;;18.30;99.90;;;;;;4946089;29;20440;-81
2021/06/06 03:15:20;;;;;;;63.45;51.15;;;18.20;99.90;;;;;;4951246;29;20231;-82
2021/06/06 03:17:53;;;;;;;60.10;49.33;;;18.20;99.90;;;;;;4945838;29;20278;-82
2021/06/06 03:20:25;;;;;;;68.35;52.88;;;18.10;99.90;;;;;;4914991;29;20210;-82
2021/06/06 03:22:56;;;;;;;59.55;50.67;;;18.30;99.90;;;;;;4935127;29;20204;-81
2021/06/06 03:25:35;;;;;;;61.55;50.45;;;18.30;99.90;;;;;;4934585;29;20225;-82
2021/06/06 03:28:26;;;;;;;65.13;54.97;;;18.40;99.90;;;;;;4931990;29;20286;-82
2021/06/06 03:30:57;;;;;;;71.22;57.22;;;18.40;99.90;;;;;;4929444;29;20215;-82
2021/06/06 03:33:46;;;;;;;71.68;53.53;;;18.20;99.90;;;;;;4929266;29;20266;-82
2021/06/06 03:36:21;;;;;;;72.78;55.72;;;18.20;99.90;;;;;;4945180;29;20224;-82
2021/06/06 03:38:49;;;;;;;64.15;52.03;;;18.20;99.90;;;;;;4928844;29;20203;-81
2021/06/06 03:41:18;;;;;;;64.40;55.58;;;18.20;99.90;;;;;;4945272;29;20210;-82
2021/06/06 03:43:51;;;;;;;62.28;52.85;;;18.30;99.90;;;;;;4946911;29;20287;-82
2021/06/06 03:46:19;;;;;;;70.95;58.15;;;18.20;99.90;;;;;;4946406;29;20808;-82
2021/06/06 03:48:48;;;;;;;61.78;52.47;;;18.20;99.90;;;;;;4946493;29;20887;-82
2021/06/06 03:51:16;;;;;;;65.55;53.00;;;18.20;99.90;;;;;;4925535;29;20207;-81
2021/06/06 03:53:44;;;;;;;58.00;49.72;;;18.10;99.90;;;;;;4926225;29;20200;-82
2021/06/06 03:56:12;;;;;;;60.50;49.97;;;18.10;99.90;;;;;;4926775;29;20219;-81
2021/06/06 03:58:40;;;;;;;66.78;53.88;;;18.20;99.90;;;;;;4926657;29;20592;-82
2021/06/06 04:01:10;;;;;;;62.13;53.85;;;18.20;99.90;;;;;;4911170;29;20741;-82
2021/06/06 04:03:38;;;;;;;66.78;54.65;;;18.30;99.90;;;;;;4926571;29;20203;-82
2021/06/06 04:06:07;;;;;;;60.47;50.72;;;18.30;99.90;;;;;;4926501;29;20250;-82
2021/06/06 04:08:37;;;;;;;61.83;50.72;;;18.20;99.90;;;;;;4926566;29;20250;-83
2021/06/06 04:11:07;;;;;;;65.18;53.58;;;18.40;99.90;;;;;;4927107;29;20192;-82
2021/06/06 04:13:42;;;;;;;62.95;51.15;;;18.20;99.90;;;;;;4911905;29;20579;-82
2021/06/06 04:16:12;;;;;;;62.15;50.85;;;18.30;99.90;;;;;;4916948;29;20242;-82
2021/06/06 04:18:40;;;;;;;65.80;56.03;;;18.20;99.90;;;;;;4912808;29;20251;-83
2021/06/06 04:21:11;;;;;;;55.83;49.30;;;18.20;99.90;;;;;;4927689;29;20203;-83
2021/06/06 04:23:38;;;;;;;61.17;54.42;;;18.20;99.90;;;;;;4928477;29;20297;-82
2021/06/06 04:26:06;;;;;;;62.80;55.78;;;18.20;99.90;;;;;;4943945;29;20318;-83
2021/06/06 04:28:38;;;;;;;61.95;52.38;;;18.10;99.90;;;;;;4936327;29;20301;-82
2021/06/06 04:31:14;;;;;;;59.72;52.35;;;18.00;99.90;;;;;;4946618;29;20198;-83
2021/06/06 04:33:41;;;;;;;68.75;55.95;;;17.90;99.90;;;;;;4930751;29;20215;-81
2021/06/06 04:36:09;;;;;;;63.33;54.13;;;18.10;99.90;;;;;;4944563;29;20278;-83
2021/06/06 04:38:37;;;;;;;65.72;57.15;;;18.10;99.90;;;;;;4945049;29;20201;-82
2021/06/06 04:41:09;;;;;;;67.70;56.20;;;18.10;99.90;;;;;;4931285;28;20195;-80
2021/06/06 04:43:39;;;;;;;71.28;58.47;;;18.10;99.90;;;;;;4946001;29;20198;-82
2021/06/06 04:46:08;;;;;;;71.40;59.20;;;18.10;99.90;;;;;;4946484;29;20226;-82
2021/06/06 04:48:38;;;;;;;65.57;53.78;;;18.20;99.90;;;;;;4943919;29;20222;-82
2021/06/06 04:51:08;;;;;;;70.85;56.65;;;18.30;99.90;;;;;;4945904;29;20229;-82
2021/06/06 04:53:40;;;;;;;74.13;61.45;;;18.10;99.90;;;;;;4929726;28;20237;-82
2021/06/06 04:56:15;;;;;;;74.22;60.05;;;18.20;99.90;;;;;;4945045;29;20218;-82
2021/06/06 04:58:43;;;;;;;67.40;57.25;;;18.30;99.90;;;;;;4930480;29;20210;-82
2021/06/06 05:01:14;;;;;;;73.07;59.83;;;18.20;99.90;;;;;;4926073;29;20199;-82
2021/06/06 05:03:44;;;;;;;71.80;59.42;;;18.20;99.90;;;;;;4926103;29;20202;-82
2021/06/06 05:06:13;;;;;;;67.18;56.97;;;18.20;99.90;;;;;;4925524;29;20231;-82
2021/06/06 05:08:39;;;;;;;76.10;60.90;;;18.30;99.90;;;;;;4925248;29;20234;-82
2021/06/06 05:11:07;;;;;;;72.50;59.72;;;18.30;99.90;;;;;;4925637;29;20207;-82
2021/06/06 05:13:37;;;;;;;67.45;56.60;;;18.30;99.90;;;;;;4926424;29;20267;-82
2021/06/06 05:16:06;;;;;;;69.93;59.38;;;18.20;99.90;;;;;;4926264;29;20219;-82
2021/06/06 05:18:34;;;;;;;67.15;56.20;;;18.20;99.90;;;;;;4949903;29;20199;-82
2021/06/06 05:21:07;;;;;;;67.78;55.45;;;18.10;99.90;;;;;;4926159;29;20626;-82
2021/06/06 05:23:36;;;;;;;65.32;53.50;;;18.10;99.90;;;;;;4913796;29;20214;-81
2021/06/06 05:26:09;;;;;;;66.18;51.78;;;18.00;99.90;;;;;;4943551;29;20303;-81
2021/06/06 05:28:40;;;;;;;71.20;53.15;;;18.10;99.90;;;;;;4963322;29;20210;-80
2021/06/06 05:31:08;;;;;;;70.03;54.03;;;18.20;99.90;;;;;;4952186;29;20271;-82
2021/06/06 05:33:34;;;;;;;73.63;55.08;;;18.10;99.90;;;;;;4962236;29;20226;-81
2021/06/06 05:36:02;;;;;;;66.13;51.92;;;18.00;99.90;;;;;;4945520;29;20241;-81
2021/06/06 05:38:32;;;;;;;64.20;48.78;;;17.90;99.90;;;;;;4944529;29;20227;-81
2021/06/06 05:41:00;;;;;;;68.25;53.70;;;17.80;99.90;;;;;;4962398;28;20199;-82
2021/06/06 05:43:27;;;;;;;71.35;55.75;;;17.90;99.90;;;;;;4962193;29;20199;-81
2021/06/06 05:45:55;;;;;;;70.90;54.35;;;18.00;99.90;;;;;;4945056;28;20277;-81
2021/06/06 05:48:23;;;;;;;64.57;52.50;;;17.90;99.90;;;;;;4944914;29;20254;-80
2021/06/06 05:50:52;;;;;;;67.18;57.65;;;17.90;99.90;;;;;;4944886;29;20221;-81
2021/06/06 05:53:40;;;;;;;75.57;58.90;;;17.90;99.90;;;;;;4894275;29;20211;-81
2021/06/06 05:56:09;;;;;;;54.88;48.63;;;18.00;99.90;;;;;;4926332;29;20219;-81
2021/06/06 05:58:37;;;;;;;71.55;54.15;;;17.90;99.90;;;;;;4938495;29;20196;-81
2021/06/06 06:01:04;;;;;;;62.33;49.40;;;17.90;99.90;;;;;;4912985;29;20286;-81
2021/06/06 06:03:34;;;;;;;59.63;52.90;;;18.00;99.90;;;;;;4941506;29;20198;-81
2021/06/06 06:06:05;;;;;;;58.75;50.50;;;17.90;99.90;;;;;;4943046;29;20238;-81
2021/06/06 06:08:34;;;;;;;65.70;53.90;;;17.70;99.90;;;;;;4925642;29;20215;-81
2021/06/06 06:11:10;;;;;;;60.30;53.28;;;17.60;99.90;;;;;;4927323;29;20748;-81
2021/06/06 06:13:37;;;;;;;57.42;48.17;;;17.50;99.90;;;;;;4925464;29;20200;-81
2021/06/06 06:16:08;;;;;;;66.72;55.45;;;17.40;99.90;;;;;;4942491;29;20223;-81
2021/06/06 06:18:36;;;;;;;67.97;56.75;;;17.40;99.90;;;;;;4925583;29;20206;-83
2021/06/06 06:21:05;;;;;;;57.45;49.10;;;17.50;99.90;;;;;;4936140;29;20215;-83
2021/06/06 06:23:32;;;;;;;71.88;54.28;;;17.50;99.90;;;;;;4952839;29;20203;-83
2021/06/06 06:26:00;;;;;;;60.38;49.75;;;17.40;99.90;;;;;;4919931;29;20239;-83
2021/06/06 06:28:29;;;;;;;61.88;50.63;;;17.50;99.90;;;;;;4953498;29;20233;-81
2021/06/06 06:31:12;;;;;;;54.28;46.90;;;17.60;99.90;;;;;;4935733;29;20230;-82
2021/06/06 06:33:52;;;;;;;56.60;48.95;;;17.60;99.90;;;;;;4919642;29;20230;-83
2021/06/06 06:36:21;;;;;;;53.17;47.17;;;17.40;99.90;;;;;;4919418;29;20226;-83
2021/06/06 06:38:50;;;;;;;62.83;48.88;;;17.50;99.90;;;;;;4919179;29;20271;-83
2021/06/06 06:41:17;;;;;;;49.13;43.58;;;17.50;99.90;;;;;;4935591;29;20207;-83
2021/06/06 06:43:45;;;;;;;57.13;47.72;;;17.50;99.90;;;;;;4934091;29;20196;-83
2021/06/06 06:46:12;;;;;;;49.15;41.72;;;17.70;99.90;;;;;;4935645;29;20223;-83
2021/06/06 06:48:40;;;;;;;47.70;41.25;;;17.80;99.90;;;;;;4952081;29;20260;-83
2021/06/06 06:51:07;;;;;;;47.50;40.67;;;17.70;99.90;;;;;;4951254;29;20211;-82
2021/06/06 06:53:34;;;;;;;47.92;40.47;;;17.70;99.90;;;;;;4952289;29;20199;-83
2021/06/06 06:56:01;;;;;;;46.15;40.88;;;17.90;99.90;;;;;;4920867;29;20235;-83
2021/06/06 06:58:28;;;;;;;41.20;36.85;;;18.10;99.90;;;;;;4937780;29;20203;-83
2021/06/06 07:00:57;;;;;;;40.83;35.10;;;18.10;99.90;;;;;;4953716;29;20207;-83
2021/06/06 07:03:26;;;;;;;46.72;40.78;;;18.10;99.90;;;;;;4937016;29;20219;-83
2021/06/06 07:05:54;;;;;;;41.45;36.70;;;18.00;99.90;;;;;;4954936;29;20226;-83
2021/06/06 07:08:26;;;;;;;44.25;39.38;;;17.80;99.90;;;;;;4933090;29;20219;-81
2021/06/06 07:10:56;;;;;;;47.90;39.72;;;17.50;99.90;;;;;;4933903;29;20228;-83
2021/06/06 07:13:24;;;;;;;41.35;35.20;;;17.60;99.90;;;;;;4931075;29;20200;-82
2021/06/06 07:15:53;;;;;;;40.63;36.22;;;17.80;99.90;;;;;;4945664;29;20303;-83
2021/06/06 07:18:22;;;;;;;39.00;34.90;;;17.70;99.90;;;;;;4953731;29;20207;-83
2021/06/06 07:20:53;;;;;;;37.13;32.97;;;17.90;99.90;;;;;;4960696;29;20203;-84
2021/06/06 07:23:21;;;;;;;32.88;29.58;;;18.00;99.90;;;;;;4955030;29;20234;-83
2021/06/06 07:25:48;;;;;;;32.38;28.90;;;17.90;99.90;;;;;;4956448;29;20211;-85
2021/06/06 07:28:18;;;;;;;29.08;26.23;;;17.90;99.90;;;;;;4970556;28;20210;-83
2021/06/06 07:30:48;;;;;;;30.45;27.30;;;18.20;99.90;;;;;;4954881;29;20231;-84
2021/06/06 07:33:16;;;;;;;28.90;26.10;;;18.30;99.90;;;;;;4929402;29;20199;-84
2021/06/06 07:35:44;;;;;;;30.67;27.63;;;18.30;99.90;;;;;;4934435;29;20602;-84
2021/06/06 07:38:11;;;;;;;29.17;26.35;;;18.40;99.90;;;;;;4931610;29;20226;-83
2021/06/06 07:40:42;;;;;;;29.98;26.92;;;18.40;99.90;;;;;;4940459;29;20207;-84
2021/06/06 07:43:09;;;;;;;29.77;26.77;;;18.10;99.90;;;;;;4938503;29;20195;-83
2021/06/06 07:45:37;;;;;;;31.83;28.75;;;17.80;99.90;;;;;;4940445;29;20239;-84
2021/06/06 07:48:04;;;;;;;28.48;25.58;;;17.80;99.90;;;;;;4939403;29;20207;-82
2021/06/06 07:50:34;;;;;;;31.00;27.88;;;17.80;99.90;;;;;;4953740;29;20215;-82
2021/06/06 07:53:03;;;;;;;27.85;25.20;;;17.80;99.90;;;;;;4946427;28;20285;-82
2021/06/06 07:55:33;;;;;;;24.38;22.05;;;18.20;99.90;;;;;;4927540;29;20223;-83
2021/06/06 07:58:00;;;;;;;27.30;24.52;;;18.40;99.90;;;;;;4951804;29;20202;-82
2021/06/06 08:00:30;;;;;;;28.67;25.65;;;18.70;99.90;;;;;;4959289;28;20220;-85
2021/06/06 08:02:57;;;;;;;24.55;22.25;;;18.90;99.90;;;;;;4930657;29;20200;-82
2021/06/06 08:05:24;;;;;;;22.90;20.52;;;19.10;99.90;;;;;;4945337;29;20236;-82
2021/06/06 08:07:52;;;;;;;29.17;20.58;;;19.20;99.90;;;;;;4944776;29;20286;-82
2021/06/06 08:10:23;;;;;;;22.25;19.90;;;19.10;99.90;;;;;;4943353;29;20220;-83
2021/06/06 08:12:50;;;;;;;23.70;19.95;;;19.20;99.90;;;;;;4944660;29;20646;-82
2021/06/06 08:15:18;;;;;;;21.45;17.88;;;19.00;99.90;;;;;;4943220;29;21604;-83
2021/06/06 08:17:45;;;;;;;21.98;19.77;;;19.00;99.90;;;;;;4934785;29;20253;-84
2021/06/06 08:20:17;;;;;;;21.63;19.52;;;19.00;99.90;;;;;;4934523;29;20187;-82
2021/06/06 08:22:44;;;;;;;21.33;19.23;;;18.90;99.90;;;;;;4931786;29;20211;-82
2021/06/06 08:25:12;;;;;;;19.95;18.05;;;18.80;99.90;;;;;;4963935;28;20203;-83
2021/06/06 08:27:43;;;;;;;19.35;17.65;;;18.90;99.90;;;;;;4967484;29;20680;-81
2021/06/06 08:30:13;;;;;;;18.58;16.83;;;18.70;99.90;;;;;;4962689;29;20204;-82
2021/06/06 08:32:40;;;;;;;17.92;16.33;;;18.60;99.90;;;;;;4916428;29;20223;-81
2021/06/06 08:35:08;;;;;;;15.75;14.23;;;18.50;99.90;;;;;;4946758;29;20195;-81
2021/06/06 08:37:36;;;;;;;17.30;15.48;;;18.60;99.90;;;;;;4936812;29;20206;-82
2021/06/06 08:40:04;;;;;;;18.92;17.30;;;18.60;99.90;;;;;;4948657;29;20196;-82
2021/06/06 08:42:43;;;;;;;17.35;15.80;;;18.60;99.90;;;;;;4932142;29;20650;-81
2021/06/06 08:45:21;;;;;;;18.90;17.20;;;18.60;99.90;;;;;;4931251;29;20223;-83
2021/06/06 08:47:50;;;;;;;21.55;19.35;;;18.60;99.90;;;;;;4938497;29;20206;-84
2021/06/06 08:50:20;;;;;;;23.17;21.17;;;18.70;99.90;;;;;;4929846;29;20238;-84
2021/06/06 08:52:54;;;;;;;20.88;19.02;;;18.50;99.90;;;;;;4927208;29;20272;-85
2021/06/06 08:55:38;;;;;;;21.08;19.08;;;18.60;99.90;;;;;;4920746;29;20227;-85
2021/06/06 08:58:18;;;;;;;20.95;19.05;;;18.50;99.90;;;;;;4932317;29;20191;-84
2021/06/06 09:00:49;;;;;;;19.15;17.50;;;18.70;99.90;;;;;;4923270;29;20215;-85
2021/06/06 09:03:22;;;;;;;21.52;19.25;;;18.80;99.90;;;;;;4940207;29;20560;-84
2021/06/06 09:05:55;;;;;;;20.67;18.83;;;19.10;99.90;;;;;;4941529;29;20670;-84
2021/06/06 09:08:25;;;;;;;17.75;16.05;;;19.30;99.90;;;;;;4940846;29;20222;-83
2021/06/06 09:10:56;;;;;;;18.40;16.85;;;19.30;99.90;;;;;;4941451;29;20203;-85
2021/06/06 09:13:24;;;;;;;17.58;15.98;;;19.40;99.90;;;;;;4940627;29;20199;-84
2021/06/06 09:15:58;;;;;;;16.20;14.63;;;19.20;99.90;;;;;;4940551;29;20227;-85
2021/06/06 09:18:28;;;;;;;15.80;14.40;;;19.00;99.90;;;;;;4940394;28;20356;-86
2021/06/06 09:21:08;;;;;;;18.23;16.45;;;19.10;99.90;;;;;;4941040;29;20693;-84
2021/06/06 09:23:34;;;;;;;18.70;16.75;;;19.20;99.90;;;;;;4939410;29;20199;-86
2021/06/06 09:26:05;;;;;;;16.77;15.27;;;19.50;99.90;;;;;;4941073;29;20722;-84
2021/06/06 09:28:33;;;;;;;17.40;15.95;;;19.70;99.90;;;;;;4942119;29;20339;-84
2021/06/06 09:31:05;;;;;;;15.93;13.80;;;20.00;99.90;;;;;;4941391;29;20204;-85
2021/06/06 09:33:36;;;;;;;14.90;13.40;;;20.00;99.90;;;;;;4941130;29;20203;-85
2021/06/06 09:36:15;;;;;;;17.27;15.77;;;20.00;99.90;;;;;;4939831;29;20270;-83
2021/06/06 09:38:43;;;;;;;19.52;17.67;;;19.90;99.90;;;;;;4938822;29;20204;-84
2021/06/06 09:41:18;;;;;;;18.75;17.00;;;19.70;99.90;;;;;;4955946;29;20207;-83
2021/06/06 09:44:06;;;;;;;22.13;18.55;;;19.20;99.90;;;;;;4959856;29;20202;-84
2021/06/06 09:46:39;;;;;;;18.83;17.13;;;18.90;99.90;;;;;;4943289;29;20219;-84
2021/06/06 09:49:11;;;;;;;19.48;17.73;;;18.90;99.90;;;;;;4957396;29;20303;-85
2021/06/06 09:51:38;;;;;;;20.92;18.98;;;18.90;99.90;;;;;;4929209;29;20687;-84
2021/06/06 09:54:10;;;;;;;19.58;17.70;;;18.90;99.90;;;;;;4946650;29;20741;-84
2021/06/06 09:56:37;;;;;;;18.98;17.17;;;19.10;99.90;;;;;;4939146;29;20706;-83
2021/06/06 09:59:18;;;;;;;18.92;17.13;;;19.10;99.90;;;;;;4939629;29;20202;-84
2021/06/06 10:01:54;;;;;;;18.67;16.98;;;19.20;99.90;;;;;;4940497;29;20195;-84
2021/06/06 10:04:24;;;;;;;17.35;15.63;;;19.10;99.90;;;;;;4922936;29;20207;-85
2021/06/06 10:06:51;;;;;;;20.42;18.35;;;19.10;99.90;;;;;;4939239;29;20237;-82
2021/06/06 10:09:30;;;;;;;20.25;18.15;;;18.90;99.90;;;;;;4939912;29;20702;-84
2021/06/06 10:12:04;;;;;;;20.98;18.88;;;18.80;99.90;;;;;;4939527;29;20247;-83
2021/06/06 10:14:35;;;;;;;20.67;18.77;;;18.70;99.90;;;;;;4939132;29;20214;-84
2021/06/06 10:17:08;;;;;;;20.70;18.70;;;18.80;99.90;;;;;;4939156;29;20392;-84
2021/06/06 10:19:39;;;;;;;21.70;19.60;;;18.80;99.90;;;;;;4938383;29;20204;-85
2021/06/06 10:22:13;;;;;;;23.52;21.27;;;18.70;99.90;;;;;;4933122;29;20286;-85
2021/06/06 10:24:45;;;;;;;20.50;18.60;;;18.60;99.90;;;;;;4936233;29;20203;-84
2021/06/06 10:27:18;;;;;;;22.05;19.95;;;18.80;99.90;;;;;;4938952;29;20587;-85
2021/06/06 10:29:51;;;;;;;19.63;17.65;;;18.90;99.90;;;;;;4922357;29;20605;-84
2021/06/06 10:32:26;;;;;;;19.00;17.13;;;19.00;99.90;;;;;;4938082;29;20203;-84
2021/06/06 10:34:57;;;;;;;18.30;16.55;;;18.90;99.90;;;;;;4918447;29;20203;-85
2021/06/06 10:37:26;;;;;;;20.85;18.83;;;18.90;99.90;;;;;;4919442;29;20663;-84
2021/06/06 10:39:56;;;;;;;19.75;17.83;;;18.90;99.90;;;;;;4938189;28;20457;-83
2021/06/06 10:42:29;;;;;;;16.63;15.13;;;18.90;99.90;;;;;;4958191;28;20673;-84
2021/06/06 10:45:09;;;;;;;15.77;14.40;;;19.10;99.90;;;;;;4941391;29;20202;-84
2021/06/06 10:47:45;;;;;;;16.88;15.27;;;19.20;99.90;;;;;;4929377;29;20685;-85
2021/06/06 10:50:31;;;;;;;15.80;14.45;;;19.40;99.90;;;;;;4937323;29;20215;-85
2021/06/06 10:53:12;;;;;;;15.07;13.38;;;19.10;99.90;;;;;;4940091;29;20203;-85
2021/06/06 10:55:54;;;;;;;13.32;12.23;;;19.00;99.90;;;;;;4939912;29;20572;-84
2021/06/06 10:58:31;;;;;;;15.85;14.45;;;18.90;99.90;;;;;;4939480;29;20283;-85
2021/06/06 11:01:01;;;;;;;22.00;19.90;;;18.90;99.90;;;;;;4954336;28;20302;-85
2021/06/06 11:03:34;;;;;;;15.13;13.85;;;19.00;99.90;;;;;;4957640;28;20198;-84
2021/06/06 11:06:05;;;;;;;16.20;14.70;;;18.80;99.90;;;;;;4941263;29;20234;-86
2021/06/06 11:08:44;;;;;;;17.33;15.40;;;18.60;99.90;;;;;;4922480;29;20192;-84
2021/06/06 11:11:29;;;;;;;14.95;13.55;;;18.70;99.90;;;;;;4939068;29;20199;-84
2021/06/06 11:14:02;;;;;;;16.30;14.82;;;18.90;99.90;;;;;;4947617;29;20214;-85
2021/06/06 11:16:35;;;;;;;15.57;14.15;;;19.00;99.90;;;;;;4951821;29;20273;-84
2021/06/06 11:19:13;;;;;;;15.88;14.35;;;19.10;99.90;;;;;;4945862;29;20223;-83
2021/06/06 11:21:50;;;;;;;17.08;15.57;;;19.00;99.90;;;;;;4947783;29;20206;-86
2021/06/06 11:24:44;;;;;;;17.50;15.85;;;19.00;99.90;;;;;;4931642;29;20674;-84
2021/06/06 11:27:28;;;;;;;18.40;16.05;;;18.80;99.90;;;;;;4952736;29;20218;-84
2021/06/06 11:30:05;;;;;;;16.67;15.18;;;18.90;99.90;;;;;;4951037;29;20230;-85
2021/06/06 11:32:39;;;;;;;15.20;13.90;;;19.10;99.90;;;;;;4947376;29;20274;-85
2021/06/06 11:35:25;;;;;;;16.92;15.35;;;18.80;99.90;;;;;;4945379;29;20567;-85
2021/06/06 11:37:55;;;;;;;14.55;13.25;;;18.90;99.90;;;;;;4942929;29;20267;-85
2021/06/06 11:40:35;;;;;;;16.92;15.27;;;19.00;99.90;;;;;;4926380;29;20199;-85
2021/06/06 11:43:12;;;;;;;16.77;15.20;;;19.10;99.90;;;;;;4944037;29;20218;-85
2021/06/06 11:45:43;;;;;;;18.15;16.58;;;19.20;99.90;;;;;;4926629;29;20598;-85
2021/06/06 11:48:14;;;;;;;15.65;14.10;;;19.20;99.90;;;;;;4941251;29;20207;-85
2021/06/06 11:50:47;;;;;;;18.15;16.45;;;19.30;99.90;;;;;;4941194;29;20314;-87
2021/06/06 11:53:21;;;;;;;15.90;14.48;;;19.20;99.90;;;;;;4941508;29;20204;-85
2021/06/06 11:55:51;;;;;;;20.48;18.45;;;19.20;99.90;;;;;;4942549;29;20231;-84
2021/06/06 11:58:21;;;;;;;18.70;16.70;;;19.20;99.90;;;;;;4944385;29;20202;-83
2021/06/06 12:00:51;;;;;;;22.27;20.05;;;18.80;99.90;;;;;;4916209;29;20207;-85
2021/06/06 12:03:26;;;;;;;21.85;19.55;;;18.60;99.90;;;;;;4948622;29;20271;-85
2021/06/06 12:05:57;;;;;;;24.33;21.77;;;18.80;99.90;;;;;;4944052;29;20614;-84
2021/06/06 12:08:31;;;;;;;25.33;22.75;;;18.70;99.90;;;;;;4943893;29;20195;-84
2021/06/06 12:11:01;;;;;;;22.60;20.60;;;18.70;99.90;;;;;;4941980;29;20223;-84
2021/06/06 12:13:31;;;;;;;23.38;21.05;;;18.60;99.90;;;;;;4947062;28;20647;-84
2021/06/06 12:16:08;;;;;;;24.42;22.05;;;18.50;99.90;;;;;;4924632;29;20276;-84
2021/06/06 12:18:35;;;;;;;26.75;24.05;;;18.60;99.90;;;;;;4942352;29;20218;-83
2021/06/06 12:21:09;;;;;;;24.50;22.10;;;18.40;99.90;;;;;;4962149;29;20210;-85
2021/06/06 12:23:39;;;;;;;26.02;23.35;;;18.40;99.90;;;;;;4950263;29;20259;-86
2021/06/06 12:26:11;;;;;;;26.90;24.10;;;18.30;99.90;;;;;;4944931;29;20635;-85
2021/06/06 12:28:42;;;;;;;26.00;23.27;;;18.40;99.90;;;;;;4943735;29;20203;-85
2021/06/06 12:31:21;;;;;;;26.40;23.77;;;18.30;99.90;;;;;;4934607;29;20218;-84
2021/06/06 12:33:48;;;;;;;25.40;22.77;;;18.50;99.90;;;;;;4936427;29;20191;-85
2021/06/06 12:36:20;;;;;;;24.80;22.38;;;18.40;99.90;;;;;;4961656;29;20211;-84
2021/06/06 12:38:48;;;;;;;28.52;25.52;;;18.20;99.90;;;;;;4944710;29;20207;-84
2021/06/06 12:41:15;;;;;;;28.52;25.63;;;18.20;99.90;;;;;;4915652;29;20207;-83
2021/06/06 12:43:46;;;;;;;30.23;25.20;;;18.10;99.90;;;;;;4944160;29;20252;-83
2021/06/06 12:46:13;;;;;;;26.17;23.45;;;18.20;99.90;;;;;;4942421;29;20635;-82
2021/06/06 12:48:53;;;;;;;27.30;24.52;;;18.00;99.90;;;;;;4954878;29;20195;-82